Time;durP1;ratioP1;P1;durP2;ratioP2;P2;SDS_P1;SDS_P2;PMS_P1;PMS_P2;Temp;Humidity;BMP_temperature;BMP_pressure;BME280_temperature;BME280_humidity;BME280_pressure;Samples;Min_cycle;Max_cycle;Signal;HPM_P1;HPM_P2
2023/06/16 00:00:09;;;;;;;14.13;7.88;;;15.60;99.90;;;;;;4962483;28;20222;-63
2023/06/16 00:02:37;;;;;;;12.73;9.00;;;15.70;99.90;;;;;;5007463;28;20613;-63
2023/06/16 00:05:04;;;;;;;11.77;7.47;;;15.70;99.90;;;;;;5016993;28;20285;-63
2023/06/16 00:07:33;;;;;;;9.00;8.02;;;15.70;99.90;;;;;;4998609;28;20272;-63
2023/06/16 00:10:00;;;;;;;10.88;7.38;;;15.70;99.90;;;;;;5006428;28;20735;-63
2023/06/16 00:12:27;;;;;;;10.45;7.88;;;15.70;99.90;;;;;;5018374;28;20194;-63
2023/06/16 00:14:55;;;;;;;12.25;8.05;;;15.60;99.90;;;;;;4967325;28;20241;-63
2023/06/16 00:17:23;;;;;;;10.88;8.57;;;15.60;99.90;;;;;;5009652;28;20198;-63
2023/06/16 00:19:51;;;;;;;9.93;8.88;;;15.60;99.90;;;;;;5011294;28;20198;-63
2023/06/16 00:22:20;;;;;;;10.55;8.75;;;15.60;99.90;;;;;;5001079;28;20213;-63
2023/06/16 00:24:47;;;;;;;11.35;8.63;;;15.60;99.90;;;;;;5003408;28;20229;-63
2023/06/16 00:27:14;;;;;;;13.90;8.88;;;15.60;99.90;;;;;;5013456;28;20210;-63
2023/06/16 00:29:41;;;;;;;11.05;8.93;;;15.70;99.90;;;;;;4963605;28;21088;-63
2023/06/16 00:32:09;;;;;;;13.70;9.45;;;15.60;99.90;;;;;;5007238;28;20264;-63
2023/06/16 00:34:36;;;;;;;9.95;8.73;;;15.50;99.90;;;;;;5009136;28;20208;-63
2023/06/16 00:37:03;;;;;;;20.05;9.85;;;15.50;99.90;;;;;;5002591;28;20198;-63
2023/06/16 00:39:30;;;;;;;12.57;9.98;;;15.50;99.90;;;;;;5000806;28;20202;-63
2023/06/16 00:41:57;;;;;;;12.20;10.70;;;15.50;99.90;;;;;;5011862;28;20407;-63
2023/06/16 00:44:24;;;;;;;12.88;10.45;;;15.50;99.90;;;;;;5005598;28;20285;-63
2023/06/16 00:46:51;;;;;;;15.25;10.88;;;15.50;99.90;;;;;;4984079;28;20212;-63
2023/06/16 00:49:20;;;;;;;12.40;10.43;;;15.50;99.90;;;;;;5011938;28;20228;-63
2023/06/16 00:51:49;;;;;;;12.77;9.60;;;15.50;99.90;;;;;;5010361;28;20689;-63
2023/06/16 00:54:16;;;;;;;13.38;10.02;;;15.50;99.90;;;;;;4992750;28;20204;-63
2023/06/16 00:56:44;;;;;;;14.15;10.13;;;15.80;99.90;;;;;;5010555;28;20430;-63
2023/06/16 00:59:10;;;;;;;11.52;10.05;;;15.50;99.90;;;;;;5014291;28;20194;-63
2023/06/16 01:01:39;;;;;;;10.75;9.57;;;15.50;99.90;;;;;;4976409;28;20210;-63
2023/06/16 01:04:06;;;;;;;12.00;10.00;;;15.50;99.90;;;;;;5012421;28;20317;-63
2023/06/16 01:06:51;;;;;;;14.27;9.52;;;15.50;99.90;;;;;;5013506;28;20221;-64
2023/06/16 01:09:24;;;;;;;13.10;9.95;;;15.60;99.90;;;;;;4999192;28;20275;-63
2023/06/16 01:12:03;;;;;;;12.07;9.65;;;15.50;99.90;;;;;;4999558;28;20726;-63
2023/06/16 01:14:43;;;;;;;12.75;9.85;;;15.40;99.90;;;;;;5009506;28;20208;-63
2023/06/16 01:17:11;;;;;;;11.32;9.25;;;15.60;99.90;;;;;;4975212;28;20589;-64
2023/06/16 01:19:45;;;;;;;11.55;9.25;;;15.60;99.90;;;;;;5008210;28;20221;-63
2023/06/16 01:22:29;;;;;;;11.95;9.25;;;15.60;99.90;;;;;;5009890;28;20197;-64
2023/06/16 01:25:00;;;;;;;10.52;9.05;;;15.60;99.90;;;;;;4996795;28;20702;-63
2023/06/16 01:27:29;;;;;;;12.23;9.02;;;15.60;99.90;;;;;;5001571;28;20237;-63
2023/06/16 01:29:57;;;;;;;15.73;9.98;;;15.60;99.90;;;;;;5008367;28;20660;-63
2023/06/16 01:32:26;;;;;;;12.63;10.07;;;15.60;99.90;;;;;;4998508;28;20195;-64
2023/06/16 01:34:53;;;;;;;12.75;10.65;;;15.70;99.90;;;;;;4988884;28;20566;-63
2023/06/16 01:37:22;;;;;;;12.55;9.88;;;15.60;99.90;;;;;;5014354;28;20198;-63
2023/06/16 01:39:50;;;;;;;13.57;10.63;;;15.60;99.90;;;;;;4998246;28;20221;-63
2023/06/16 01:42:19;;;;;;;14.48;10.65;;;15.60;99.90;;;;;;5003136;28;20220;-63
2023/06/16 01:44:47;;;;;;;11.55;10.25;;;15.70;99.90;;;;;;5013071;28;20507;-64
2023/06/16 01:47:14;;;;;;;13.25;10.98;;;15.70;99.90;;;;;;5014210;28;20200;-63
2023/06/16 01:49:42;;;;;;;11.30;10.10;;;15.60;99.90;;;;;;4979528;28;20346;-63
2023/06/16 01:52:09;;;;;;;15.95;11.27;;;15.60;99.90;;;;;;5011404;28;20194;-63
2023/06/16 01:54:36;;;;;;;14.43;10.55;;;15.70;99.90;;;;;;5002513;28;20202;-63
2023/06/16 01:57:04;;;;;;;11.80;10.30;;;15.60;99.90;;;;;;5001069;28;20202;-63
2023/06/16 01:59:32;;;;;;;14.98;10.18;;;15.60;99.90;;;;;;5011074;28;20237;-63
2023/06/16 02:02:05;;;;;;;13.13;10.40;;;15.60;99.90;;;;;;5007082;28;21351;-63
2023/06/16 02:04:34;;;;;;;12.13;9.65;;;15.60;99.90;;;;;;4979959;28;20206;-64
2023/06/16 02:07:07;;;;;;;12.70;9.80;;;15.60;99.90;;;;;;5005811;28;20894;-63
2023/06/16 02:09:35;;;;;;;12.23;9.73;;;15.60;99.90;;;;;;5004054;28;20225;-64
2023/06/16 02:12:03;;;;;;;13.40;10.57;;;15.60;99.90;;;;;;4987315;28;20250;-64
2023/06/16 02:14:33;;;;;;;14.05;10.23;;;15.60;99.90;;;;;;4997313;28;20203;-63
2023/06/16 02:17:05;;;;;;;13.50;10.02;;;15.60;99.90;;;;;;5004271;28;20501;-63
2023/06/16 02:19:32;;;;;;;12.73;10.00;;;15.50;99.90;;;;;;4974814;28;20287;-63
2023/06/16 02:21:59;;;;;;;11.18;9.68;;;15.50;99.90;;;;;;5006882;28;20450;-63
2023/06/16 02:24:26;;;;;;;13.23;9.45;;;15.50;99.90;;;;;;5012999;28;20216;-63
2023/06/16 02:26:52;;;;;;;12.20;10.15;;;15.40;99.90;;;;;;4996413;28;20199;-63
2023/06/16 02:29:20;;;;;;;10.95;9.30;;;15.40;99.90;;;;;;5011111;28;20667;-64
2023/06/16 02:31:49;;;;;;;15.25;10.27;;;15.50;99.90;;;;;;4994127;28;20202;-63
2023/06/16 02:34:16;;;;;;;13.70;10.40;;;15.50;99.90;;;;;;5009077;28;20214;-63
2023/06/16 02:36:43;;;;;;;11.77;9.98;;;15.30;99.90;;;;;;4974491;28;20217;-63
2023/06/16 02:39:10;;;;;;;14.68;10.55;;;15.40;99.90;;;;;;5007772;28;20803;-63
2023/06/16 02:41:37;;;;;;;14.02;10.73;;;15.30;99.90;;;;;;4996561;28;20208;-63
2023/06/16 02:44:04;;;;;;;15.85;10.23;;;15.30;99.90;;;;;;5004946;28;20682;-63
2023/06/16 02:46:31;;;;;;;15.55;10.18;;;15.20;99.90;;;;;;4995132;28;20225;-63
2023/06/16 02:48:59;;;;;;;14.10;10.50;;;14.30;99.90;;;;;;5005667;28;20302;-63
2023/06/16 02:51:26;;;;;;;11.82;9.52;;;15.20;99.90;;;;;;4969550;28;20327;-63
2023/06/16 02:53:53;;;;;;;11.52;9.25;;;15.10;99.90;;;;;;5001101;28;20213;-63
2023/06/16 02:56:20;;;;;;;12.95;9.50;;;15.20;99.90;;;;;;4996073;28;20206;-63
2023/06/16 02:58:47;;;;;;;13.15;9.68;;;15.20;99.90;;;;;;5002164;28;20289;-63
2023/06/16 03:01:15;;;;;;;11.18;8.75;;;15.20;99.90;;;;;;4990488;28;20212;-64
2023/06/16 03:03:42;;;;;;;13.25;10.02;;;15.20;99.90;;;;;;5007642;28;20256;-64
2023/06/16 03:06:10;;;;;;;12.40;9.85;;;15.20;99.90;;;;;;4975219;28;20727;-64
2023/06/16 03:08:37;;;;;;;13.77;10.38;;;;;;;;;;5008249;28;20739;-63
2023/06/16 03:11:04;;;;;;;12.10;10.23;;;15.20;99.90;;;;;;4994830;28;20229;-64
2023/06/16 03:13:31;;;;;;;14.80;11.70;;;15.30;99.90;;;;;;4997578;28;20248;-63
2023/06/16 03:15:57;;;;;;;14.32;10.02;;;15.30;99.90;;;;;;4988758;28;20244;-63
2023/06/16 03:18:24;;;;;;;14.02;9.80;;;15.20;99.90;;;;;;5008266;28;20198;-63
2023/06/16 03:20:51;;;;;;;11.98;10.05;;;15.30;99.90;;;;;;4968069;28;20223;-64
2023/06/16 03:23:19;;;;;;;15.07;10.82;;;15.30;99.90;;;;;;5005466;28;20236;-63
2023/06/16 03:25:46;;;;;;;14.75;9.77;;;15.20;99.90;;;;;;5001706;28;20295;-64
2023/06/16 03:28:14;;;;;;;11.60;9.35;;;15.30;99.90;;;;;;4997537;28;20226;-64
2023/06/16 03:30:41;;;;;;;9.65;8.48;;;15.40;99.90;;;;;;4984662;28;20222;-64
2023/06/16 03:33:08;;;;;;;11.63;9.13;;;15.10;99.90;;;;;;5007544;28;20707;-64
2023/06/16 03:35:34;;;;;;;11.05;8.63;;;15.10;99.90;;;;;;4994513;28;20297;-63
2023/06/16 03:38:01;;;;;;;12.93;9.73;;;15.00;99.90;;;;;;4972753;28;20216;-63
2023/06/16 03:40:30;;;;;;;9.95;8.93;;;15.00;99.90;;;;;;4999981;28;20205;-63
2023/06/16 03:42:56;;;;;;;12.70;10.35;;;14.80;99.90;;;;;;5005930;28;20276;-63
2023/06/16 03:45:23;;;;;;;13.43;9.88;;;14.90;99.90;;;;;;4992598;28;20205;-63
2023/06/16 03:47:50;;;;;;;13.80;10.43;;;14.90;99.90;;;;;;5008285;28;20198;-63
2023/06/16 03:50:17;;;;;;;14.65;9.88;;;14.90;99.90;;;;;;5009970;28;20225;-63
2023/06/16 03:52:44;;;;;;;16.85;11.38;;;14.90;99.90;;;;;;4975111;28;20206;-63
2023/06/16 03:55:11;;;;;;;15.85;11.23;;;14.90;99.90;;;;;;5013930;28;20679;-63
2023/06/16 03:57:39;;;;;;;11.98;10.18;;;14.90;99.90;;;;;;5012104;28;20603;-64
2023/06/16 04:00:10;;;;;;;13.05;10.77;;;14.90;99.90;;;;;;4999630;28;20757;-63
2023/06/16 04:02:37;;;;;;;13.30;10.88;;;14.90;99.90;;;;;;5012620;28;20851;-64
2023/06/16 04:05:04;;;;;;;13.50;11.65;;;15.00;99.90;;;;;;5012269;28;20278;-63
2023/06/16 04:07:31;;;;;;;14.38;12.38;;;15.00;99.90;;;;;;4999005;28;20230;-63
2023/06/16 04:09:58;;;;;;;15.32;11.50;;;15.00;99.90;;;;;;4982193;28;20239;-64
2023/06/16 04:12:25;;;;;;;16.52;13.05;;;15.00;99.90;;;;;;5004388;28;20225;-64
2023/06/16 04:14:53;;;;;;;16.40;12.32;;;15.00;99.90;;;;;;4995318;28;20198;-63
2023/06/16 04:17:20;;;;;;;16.42;12.30;;;15.00;99.90;;;;;;4977251;28;20222;-63
2023/06/16 04:19:47;;;;;;;19.75;13.73;;;15.00;99.90;;;;;;5000115;28;20407;-63
2023/06/16 04:22:14;;;;;;;18.92;14.20;;;15.10;99.90;;;;;;5004705;28;20454;-64
2023/06/16 04:24:40;;;;;;;18.00;14.65;;;15.10;99.90;;;;;;4980824;28;20684;-63
2023/06/16 04:27:08;;;;;;;20.55;14.15;;;15.20;99.90;;;;;;4999604;28;20403;-64
2023/06/16 04:29:41;;;;;;;18.98;15.65;;;15.20;99.90;;;;;;4983969;28;20226;-63
2023/06/16 04:32:11;;;;;;;20.55;14.90;;;15.20;99.90;;;;;;4974179;28;20356;-63
2023/06/16 04:34:38;;;;;;;18.38;15.52;;;15.30;99.90;;;;;;5000703;28;20715;-63
2023/06/16 04:37:05;;;;;;;21.15;16.40;;;15.20;99.90;;;;;;5009706;28;20734;-63
2023/06/16 04:39:32;;;;;;;21.60;16.70;;;15.20;99.90;;;;;;4971744;28;20754;-63
2023/06/16 04:41:59;;;;;;;25.38;17.33;;;15.30;99.90;;;;;;5011105;28;20221;-63
2023/06/16 04:44:25;;;;;;;24.67;18.27;;;15.20;99.90;;;;;;5010932;28;20198;-64
2023/06/16 04:46:52;;;;;;;23.30;18.20;;;15.30;99.90;;;;;;4989514;28;20237;-63
2023/06/16 04:49:20;;;;;;;24.90;18.75;;;15.30;99.90;;;;;;4982141;28;20252;-63
2023/06/16 04:51:47;;;;;;;23.48;17.48;;;15.40;99.90;;;;;;4979222;28;20230;-63
2023/06/16 04:54:14;;;;;;;23.73;18.65;;;15.40;99.90;;;;;;4998707;28;20214;-64
2023/06/16 04:56:41;;;;;;;24.45;18.27;;;15.40;99.90;;;;;;4958943;28;20439;-63
2023/06/16 04:59:07;;;;;;;23.48;18.38;;;15.40;99.90;;;;;;5011837;28;20218;-64
2023/06/16 05:01:34;;;;;;;24.33;19.20;;;15.40;99.90;;;;;;4987093;28;20218;-63
2023/06/16 05:04:01;;;;;;;23.30;18.17;;;15.40;99.90;;;;;;5003644;28;20228;-63
2023/06/16 05:06:29;;;;;;;22.50;17.67;;;15.40;99.90;;;;;;5009117;28;20289;-63
2023/06/16 05:08:56;;;;;;;25.58;17.90;;;15.40;99.90;;;;;;4999146;28;20800;-64
2023/06/16 05:11:23;;;;;;;23.13;18.83;;;15.40;99.90;;;;;;4963898;28;20608;-63
2023/06/16 05:13:50;;;;;;;19.70;17.10;;;15.50;99.90;;;;;;5010432;28;20221;-63
2023/06/16 05:16:17;;;;;;;22.60;16.27;;;15.50;99.90;;;;;;4988999;28;20840;-64
2023/06/16 05:18:44;;;;;;;21.58;17.08;;;15.50;99.90;;;;;;5006905;28;21157;-64
2023/06/16 05:21:10;;;;;;;21.60;17.23;;;15.50;99.90;;;;;;5008411;28;20666;-64
2023/06/16 05:23:39;;;;;;;21.88;16.13;;;15.50;99.90;;;;;;5008511;28;20205;-64
2023/06/16 05:26:07;;;;;;;21.63;15.55;;;15.60;99.90;;;;;;4951790;28;20244;-64
2023/06/16 05:28:34;;;;;;;20.02;16.30;;;15.60;99.90;;;;;;5006423;28;20205;-64
2023/06/16 05:31:01;;;;;;;17.35;14.63;;;15.70;99.90;;;;;;5010126;28;21012;-63
2023/06/16 05:33:27;;;;;;;24.55;16.33;;;15.80;99.90;;;;;;4996053;28;20202;-64
2023/06/16 05:35:54;;;;;;;18.65;15.13;;;15.80;99.90;;;;;;5011991;28;20215;-64
2023/06/16 05:38:21;;;;;;;20.63;15.07;;;15.80;99.90;;;;;;5011458;28;20249;-64
2023/06/16 05:40:49;;;;;;;18.33;15.20;;;16.00;99.90;;;;;;4971149;28;20415;-64
2023/06/16 05:43:16;;;;;;;19.30;14.88;;;15.90;99.90;;;;;;5000077;28;20551;-64
2023/06/16 05:45:43;;;;;;;25.05;15.77;;;16.10;99.90;;;;;;4987603;28;20214;-64
2023/06/16 05:48:09;;;;;;;20.35;14.40;;;16.00;99.90;;;;;;4997888;28;20210;-64
2023/06/16 05:50:36;;;;;;;17.55;13.68;;;16.20;99.90;;;;;;5009361;28;20226;-64
2023/06/16 05:53:04;;;;;;;15.98;13.25;;;16.20;99.90;;;;;;5008426;28;20198;-64
2023/06/16 05:55:31;;;;;;;14.98;12.52;;;16.10;99.90;;;;;;5010007;28;20205;-64
2023/06/16 05:58:00;;;;;;;20.90;13.07;;;16.20;99.90;;;;;;4984665;28;20218;-64
2023/06/16 06:00:27;;;;;;;17.95;13.13;;;16.10;99.90;;;;;;5004806;28;20209;-63
2023/06/16 06:02:54;;;;;;;14.93;12.82;;;16.10;99.90;;;;;;5007037;28;20201;-64
2023/06/16 06:05:21;;;;;;;17.88;12.95;;;16.10;99.90;;;;;;4999475;28;20797;-64
2023/06/16 06:07:47;;;;;;;14.88;11.80;;;16.20;99.90;;;;;;5008587;28;20821;-64
2023/06/16 06:10:14;;;;;;;13.70;11.73;;;16.20;99.90;;;;;;5013680;28;20201;-64
2023/06/16 06:12:41;;;;;;;16.85;11.25;;;16.40;99.90;;;;;;4978178;28;20216;-64
2023/06/16 06:15:11;;;;;;;16.27;11.93;;;16.50;99.90;;;;;;5008686;28;20206;-64
2023/06/16 06:17:38;;;;;;;15.50;11.30;;;16.50;99.90;;;;;;5003121;28;20224;-64
2023/06/16 06:20:06;;;;;;;17.40;10.68;;;16.60;99.90;;;;;;4993206;28;20225;-64
2023/06/16 06:22:33;;;;;;;12.27;10.60;;;16.70;99.90;;;;;;5007187;28;20218;-64
2023/06/16 06:25:00;;;;;;;11.63;10.00;;;16.90;99.90;;;;;;5005539;28;20668;-64
2023/06/16 06:27:27;;;;;;;11.10;9.82;;;17.00;99.90;;;;;;5002562;28;20315;-65
2023/06/16 06:29:53;;;;;;;14.27;10.68;;;17.00;99.90;;;;;;4964409;28;20521;-64
2023/06/16 06:32:21;;;;;;;15.02;9.13;;;17.10;99.90;;;;;;4997625;28;20653;-64
2023/06/16 06:34:48;;;;;;;13.60;8.82;;;17.40;99.90;;;;;;4987199;28;20198;-64
2023/06/16 06:37:18;;;;;;;11.68;8.95;;;17.40;99.90;;;;;;5008577;28;20225;-64
2023/06/16 06:39:45;;;;;;;13.07;8.07;;;17.40;99.90;;;;;;5008842;28;20385;-64
2023/06/16 06:42:13;;;;;;;11.25;8.65;;;;;;;;;;5010024;28;20204;-64
2023/06/16 06:44:39;;;;;;;10.93;7.88;;;17.50;99.90;;;;;;4960082;28;20226;-64
2023/06/16 06:47:06;;;;;;;12.60;7.45;;;17.50;99.90;;;;;;4982434;28;20214;-64
2023/06/16 06:49:35;;;;;;;10.15;8.13;;;17.60;99.90;;;;;;4993379;28;21029;-64
2023/06/16 06:52:01;;;;;;;11.45;7.57;;;17.80;99.90;;;;;;5011483;28;20330;-64
2023/06/16 06:54:28;;;;;;;9.15;7.20;;;17.80;99.90;;;;;;5004661;28;20201;-65
2023/06/16 06:56:55;;;;;;;10.00;6.85;;;17.80;99.90;;;;;;5010055;28;20194;-64
2023/06/16 06:59:22;;;;;;;12.30;7.13;;;17.80;99.90;;;;;;4975257;28;21562;-64
2023/06/16 07:01:49;;;;;;;8.57;7.38;;;17.80;99.90;;;;;;5010563;28;20198;-64
2023/06/16 07:04:15;;;;;;;7.63;6.53;;;17.90;99.90;;;;;;4987524;28;20222;-64
2023/06/16 07:06:43;;;;;;;7.57;6.63;;;17.90;99.90;;;;;;4952716;28;20277;-64
2023/06/16 07:09:10;;;;;;;7.60;6.45;;;17.90;99.90;;;;;;5007159;28;20233;-64
2023/06/16 07:11:37;;;;;;;9.55;6.80;;;18.00;99.90;;;;;;5006978;28;20303;-64
2023/06/16 07:14:04;;;;;;;8.25;7.25;;;18.10;99.90;;;;;;5007157;28;20298;-64
2023/06/16 07:16:31;;;;;;;8.88;6.85;;;18.10;99.90;;;;;;4970729;28;20584;-64
2023/06/16 07:18:58;;;;;;;8.20;6.40;;;18.30;99.90;;;;;;5007469;28;20194;-64
2023/06/16 07:21:27;;;;;;;11.48;7.38;;;18.30;99.90;;;;;;4993062;28;20281;-64
2023/06/16 07:23:55;;;;;;;9.15;7.38;;;18.30;99.90;;;;;;5005197;28;20236;-64
2023/06/16 07:26:22;;;;;;;7.75;6.72;;;18.30;99.90;;;;;;5012298;28;20244;-64
2023/06/16 07:28:49;;;;;;;9.27;5.95;;;18.30;99.90;;;;;;4983604;28;20202;-64
2023/06/16 07:31:15;;;;;;;13.80;6.50;;;18.40;99.90;;;;;;4973528;28;20228;-64
2023/06/16 07:33:42;;;;;;;9.88;6.85;;;18.40;99.90;;;;;;5006836;28;20197;-64
2023/06/16 07:36:09;;;;;;;7.00;6.22;;;18.50;99.90;;;;;;4981700;28;20218;-64
2023/06/16 07:38:36;;;;;;;10.25;6.38;;;18.50;99.90;;;;;;4994406;28;20222;-64
2023/06/16 07:41:06;;;;;;;9.27;6.18;;;18.50;99.90;;;;;;4995761;28;20217;-64
2023/06/16 07:43:33;;;;;;;10.15;6.22;;;18.70;99.90;;;;;;5009642;28;20581;-64
2023/06/16 07:46:00;;;;;;;7.18;5.90;;;18.80;99.90;;;;;;4998425;28;20221;-65
2023/06/16 07:48:26;;;;;;;9.15;5.43;;;18.80;99.90;;;;;;4998670;28;20440;-64
2023/06/16 07:50:53;;;;;;;7.93;5.75;;;18.80;99.90;;;;;;4987828;28;20202;-64
2023/06/16 07:53:21;;;;;;;6.18;5.28;;;18.80;99.90;;;;;;4987793;28;20727;-64
2023/06/16 07:55:47;;;;;;;7.55;5.55;;;18.80;99.90;;;;;;5006912;28;20614;-64
2023/06/16 07:58:16;;;;;;;7.78;5.82;;;18.90;99.90;;;;;;4998601;28;20210;-64
2023/06/16 08:00:42;;;;;;;6.78;6.07;;;18.90;99.90;;;;;;5012665;28;20202;-64
2023/06/16 08:03:09;;;;;;;6.80;5.20;;;19.00;99.90;;;;;;4980240;28;20225;-65
2023/06/16 08:05:36;;;;;;;7.90;5.47;;;19.90;99.90;;;;;;5006664;28;20240;-64
2023/06/16 08:08:03;;;;;;;7.93;4.88;;;19.00;99.90;;;;;;5004720;28;20248;-63
2023/06/16 08:10:30;;;;;;;9.77;5.25;;;19.10;99.90;;;;;;5011925;28;20703;-64
2023/06/16 08:12:56;;;;;;;5.53;4.93;;;19.00;99.90;;;;;;4985279;28;22368;-63
2023/06/16 08:15:24;;;;;;;5.80;4.50;;;19.00;99.90;;;;;;4992330;28;20190;-63
2023/06/16 08:17:51;;;;;;;6.07;4.13;;;19.00;99.90;;;;;;4983467;28;20289;-64
2023/06/16 08:20:18;;;;;;;5.63;4.35;;;19.00;99.90;;;;;;5003147;28;21006;-63
2023/06/16 08:22:45;;;;;;;6.72;4.68;;;18.90;99.90;;;;;;4998349;28;20210;-63
2023/06/16 08:25:12;;;;;;;5.93;4.30;;;19.00;99.90;;;;;;5007208;28;20430;-63
2023/06/16 08:27:40;;;;;;;5.25;4.47;;;19.10;99.90;;;;;;4997848;28;20601;-64
2023/06/16 08:30:09;;;;;;;9.00;5.00;;;19.10;99.90;;;;;;4998922;28;20210;-63
2023/06/16 08:32:37;;;;;;;7.95;4.68;;;19.10;99.90;;;;;;4961940;28;22322;-63
2023/06/16 08:35:05;;;;;;;5.75;5.15;;;19.20;99.90;;;;;;5015466;28;20217;-64
2023/06/16 08:37:32;;;;;;;5.93;4.88;;;19.30;99.90;;;;;;4996028;28;20209;-63
2023/06/16 08:39:58;;;;;;;7.07;4.97;;;19.40;99.90;;;;;;5007844;28;20229;-64
2023/06/16 08:42:25;;;;;;;6.25;4.85;;;19.40;99.90;;;;;;5006809;28;20560;-64
2023/06/16 08:44:54;;;;;;;5.50;4.95;;;19.60;99.90;;;;;;5004740;28;20696;-64
2023/06/16 08:47:20;;;;;;;5.30;4.80;;;19.60;99.90;;;;;;5002470;28;20218;-63
2023/06/16 08:49:52;;;;;;;11.77;4.85;;;19.70;99.90;;;;;;4979686;28;20217;-63
2023/06/16 08:52:20;;;;;;;6.95;5.30;;;19.70;99.90;;;;;;4996889;28;20540;-64
2023/06/16 08:54:49;;;;;;;6.95;4.75;;;19.70;99.90;;;;;;5008671;28;20249;-64
2023/06/16 08:57:19;;;;;;;7.50;5.28;;;19.80;99.90;;;;;;5011174;28;20198;-63
2023/06/16 08:59:50;;;;;;;5.78;4.80;;;19.90;99.90;;;;;;4993435;28;20937;-63
2023/06/16 09:02:17;;;;;;;7.45;5.53;;;20.10;99.90;;;;;;5005908;28;20680;-63
2023/06/16 09:04:44;;;;;;;8.52;5.15;;;20.10;99.90;;;;;;4975779;28;20321;-64
2023/06/16 09:07:16;;;;;;;6.38;4.80;;;20.00;99.90;;;;;;5013920;28;20241;-64
2023/06/16 09:09:43;;;;;;;6.65;5.28;;;19.90;99.90;;;;;;4989244;28;20206;-64
2023/06/16 09:12:11;;;;;;;6.07;4.47;;;20.00;99.90;;;;;;5009972;28;20718;-63
2023/06/16 09:14:41;;;;;;;6.03;4.82;;;20.00;99.90;;;;;;4999416;28;20285;-64
2023/06/16 09:17:09;;;;;;;6.40;4.60;;;20.00;99.90;;;;;;5014152;28;20190;-64
2023/06/16 09:19:47;;;;;;;5.57;4.90;;;20.00;99.90;;;;;;4977976;28;20209;-63
2023/06/16 09:22:18;;;;;;;9.25;4.88;;;20.00;99.90;;;;;;5008477;28;20195;-64
2023/06/16 09:24:45;;;;;;;7.22;5.28;;;20.10;99.90;;;;;;4998022;28;20211;-64
2023/06/16 09:27:12;;;;;;;5.97;4.68;;;20.10;99.90;;;;;;5012678;28;20776;-63
2023/06/16 09:29:39;;;;;;;5.57;4.97;;;20.10;99.90;;;;;;4998994;28;20289;-63
2023/06/16 09:32:10;;;;;;;5.40;4.90;;;20.20;99.90;;;;;;5014736;28;20232;-63
2023/06/16 09:34:37;;;;;;;6.88;5.07;;;19.80;99.90;;;;;;4977659;28;21499;-64
2023/06/16 09:37:06;;;;;;;6.22;4.95;;;20.20;99.90;;;;;;5011829;28;20285;-64
2023/06/16 09:39:35;;;;;;;11.98;5.65;;;20.10;99.90;;;;;;4993400;28;20195;-64
2023/06/16 09:42:02;;;;;;;6.45;5.18;;;20.00;99.90;;;;;;5008036;28;21024;-64
2023/06/16 09:44:30;;;;;;;8.05;4.75;;;19.90;99.90;;;;;;5006835;28;20569;-64
2023/06/16 09:46:59;;;;;;;7.75;5.03;;;19.90;99.90;;;;;;4997070;28;20207;-64
2023/06/16 09:49:26;;;;;;;6.72;5.28;;;20.00;99.90;;;;;;4995096;28;20218;-64
2023/06/16 09:51:53;;;;;;;6.85;4.75;;;20.00;99.90;;;;;;4980685;28;20246;-63
2023/06/16 09:54:21;;;;;;;8.18;4.65;;;20.00;99.90;;;;;;5011120;28;20200;-63
2023/06/16 09:56:50;;;;;;;4.93;4.35;;;19.90;99.90;;;;;;4995920;28;20202;-63
2023/06/16 09:59:17;;;;;;;5.40;4.90;;;19.90;99.90;;;;;;5008755;28;20210;-63
2023/06/16 10:01:47;;;;;;;10.35;5.38;;;19.90;99.90;;;;;;4995743;28;21416;-63
2023/06/16 10:04:16;;;;;;;7.15;5.32;;;19.90;99.90;;;;;;5006283;28;20194;-64
2023/06/16 10:06:48;;;;;;;5.20;4.70;;;20.10;99.90;;;;;;4979607;28;20253;-64
2023/06/16 10:09:17;;;;;;;6.00;5.10;;;20.10;99.90;;;;;;5010336;28;20202;-63
2023/06/16 10:11:45;;;;;;;8.27;4.75;;;20.30;99.90;;;;;;4995870;28;20431;-63
2023/06/16 10:14:15;;;;;;;8.18;4.80;;;20.60;99.90;;;;;;5012307;28;20202;-64
2023/06/16 10:16:43;;;;;;;7.95;4.60;;;20.70;99.90;;;;;;4998201;28;20619;-64
2023/06/16 10:19:11;;;;;;;5.82;4.20;;;20.70;99.90;;;;;;5010330;28;20202;-64
2023/06/16 10:21:37;;;;;;;6.65;4.82;;;20.90;99.90;;;;;;4978051;28;20790;-64
2023/06/16 10:24:06;;;;;;;6.07;4.32;;;21.00;99.90;;;;;;5011469;28;20663;-63
2023/06/16 10:26:34;;;;;;;11.95;4.85;;;21.10;99.90;;;;;;4993669;28;20457;-64
2023/06/16 10:29:01;;;;;;;8.80;4.97;;;21.10;99.90;;;;;;5009184;28;20194;-64
2023/06/16 10:31:30;;;;;;;6.63;4.68;;;21.00;99.90;;;;;;5004705;28;20206;-63
2023/06/16 10:33:59;;;;;;;8.80;4.47;;;21.10;99.90;;;;;;5001462;28;20229;-64
2023/06/16 10:36:36;;;;;;;9.52;4.90;;;21.10;99.90;;;;;;4985539;28;20607;-64
2023/06/16 10:39:08;;;;;;;7.18;4.20;;;21.10;99.90;;;;;;5009888;28;20751;-63
2023/06/16 10:41:49;;;;;;;5.55;4.75;;;21.20;99.90;;;;;;4989832;28;20774;-64
2023/06/16 10:44:26;;;;;;;5.38;4.82;;;21.30;99.90;;;;;;5008971;28;20198;-63
2023/06/16 10:47:28;;;;;;;4.75;4.22;;;21.30;99.90;;;;;;5009972;28;20231;-63
2023/06/16 10:49:57;;;;;;;5.00;4.50;;;21.30;99.90;;;;;;5004641;28;20205;-64
2023/06/16 10:52:33;;;;;;;5.43;4.88;;;20.80;99.90;;;;;;4987888;28;20225;-64
2023/06/16 10:55:15;;;;;;;6.47;4.72;;;21.40;99.90;;;;;;5009645;28;20205;-63
2023/06/16 10:57:43;;;;;;;5.13;4.45;;;21.40;99.90;;;;;;4996355;28;20213;-64
2023/06/16 11:00:11;;;;;;;7.28;5.25;;;21.40;99.90;;;;;;5008515;28;20287;-64
2023/06/16 11:02:50;;;;;;;8.27;4.93;;;21.40;99.90;;;;;;4998731;28;20206;-64
2023/06/16 11:05:20;;;;;;;7.82;5.03;;;21.50;99.90;;;;;;5008189;28;21130;-63
2023/06/16 11:08:13;;;;;;;6.68;4.95;;;21.50;99.90;;;;;;4986817;28;20335;-64
2023/06/16 11:10:50;;;;;;;7.38;4.68;;;21.70;99.90;;;;;;5011339;28;20217;-63
2023/06/16 11:13:18;;;;;;;6.93;4.75;;;21.70;99.90;;;;;;4994305;28;20229;-64
2023/06/16 11:15:46;;;;;;;4.35;3.95;;;21.70;99.90;;;;;;5007927;28;20205;-63
2023/06/16 11:18:14;;;;;;;7.65;4.68;;;21.80;99.90;;;;;;5008131;28;20213;-64
2023/06/16 11:20:41;;;;;;;5.82;4.38;;;22.00;99.90;;;;;;5010783;28;20202;-64
2023/06/16 11:23:09;;;;;;;6.50;4.40;;;22.00;99.90;;;;;;5005011;28;20198;-64
2023/06/16 11:25:37;;;;;;;5.80;5.05;;;22.00;99.90;;;;;;4970075;28;20222;-64
2023/06/16 11:28:05;;;;;;;7.43;4.63;;;22.00;99.90;;;;;;4992515;28;20202;-64
2023/06/16 11:30:35;;;;;;;8.90;4.38;;;22.00;99.90;;;;;;5010156;28;20204;-64
2023/06/16 11:33:02;;;;;;;6.70;4.40;;;22.00;99.90;;;;;;5006770;28;20424;-64
2023/06/16 11:35:34;;;;;;;12.10;4.03;;;21.90;99.90;;;;;;4998735;28;20210;-64
2023/06/16 11:38:01;;;;;;;5.72;4.47;;;22.00;99.90;;;;;;5006856;28;20761;-64
2023/06/16 11:40:30;;;;;;;4.90;4.30;;;22.10;99.90;;;;;;4978228;28;20221;-64
2023/06/16 11:42:58;;;;;;;5.93;4.28;;;22.20;99.90;;;;;;4990041;28;20202;-63
2023/06/16 11:45:26;;;;;;;4.63;4.20;;;22.20;99.90;;;;;;5009177;28;20201;-64
2023/06/16 11:47:55;;;;;;;5.78;4.15;;;22.40;99.90;;;;;;5009583;28;20208;-64
2023/06/16 11:50:22;;;;;;;7.45;4.00;;;22.40;99.90;;;;;;5000835;28;20285;-63
2023/06/16 11:52:51;;;;;;;6.55;4.30;;;22.50;99.90;;;;;;5005835;28;20226;-64
2023/06/16 11:55:18;;;;;;;4.25;3.85;;;22.40;99.90;;;;;;4977497;28;20252;-64
2023/06/16 11:57:45;;;;;;;4.40;3.75;;;22.30;99.90;;;;;;5000614;28;20225;-64
2023/06/16 12:00:14;;;;;;;5.72;4.40;;;22.30;99.90;;;;;;5002629;28;20829;-64
2023/06/16 12:02:41;;;;;;;4.32;3.92;;;22.20;99.90;;;;;;5006229;28;20198;-63
2023/06/16 12:05:11;;;;;;;5.82;4.07;;;22.40;99.90;;;;;;4998285;28;20198;-63
2023/06/16 12:07:39;;;;;;;5.15;4.30;;;22.20;99.90;;;;;;5007187;28;20233;-64
2023/06/16 12:10:09;;;;;;;5.18;4.18;;;22.20;99.90;;;;;;5006427;28;20370;-63
2023/06/16 12:12:38;;;;;;;6.43;4.32;;;22.10;99.90;;;;;;4978356;28;20217;-64
2023/06/16 12:15:07;;;;;;;4.30;3.90;;;22.20;99.90;;;;;;5002951;28;20202;-63
2023/06/16 12:17:34;;;;;;;4.45;4.00;;;22.20;99.90;;;;;;5013329;28;20253;-64
2023/06/16 12:20:04;;;;;;;4.38;3.88;;;22.20;99.90;;;;;;4989092;28;20783;-64
2023/06/16 12:22:35;;;;;;;5.47;4.18;;;22.20;99.90;;;;;;5012986;28;20194;-64
2023/06/16 12:25:01;;;;;;;5.13;4.45;;;22.30;99.90;;;;;;5007051;28;20739;-64
2023/06/16 12:27:33;;;;;;;4.40;4.00;;;22.20;99.90;;;;;;4984347;28;20210;-64
2023/06/16 12:30:00;;;;;;;4.85;4.38;;;22.40;99.90;;;;;;4996863;28;20285;-64
2023/06/16 12:32:30;;;;;;;6.70;4.50;;;22.50;99.90;;;;;;5014077;28;20561;-64
2023/06/16 12:34:58;;;;;;;7.32;4.00;;;22.50;99.90;;;;;;4985423;28;20563;-64
2023/06/16 12:37:26;;;;;;;6.90;4.60;;;22.40;99.90;;;;;;4998216;28;20261;-64
2023/06/16 12:40:06;;;;;;;7.07;4.57;;;22.50;99.90;;;;;;5007595;28;20193;-64
2023/06/16 12:42:36;;;;;;;4.53;4.15;;;22.50;99.90;;;;;;4981100;28;20216;-64